Time;durP1;ratioP1;P1;durP2;ratioP2;P2;SDS_P1;SDS_P2;PMS_P1;PMS_P2;Temp;Humidity;BMP_temperature;BMP_pressure;BME280_temperature;BME280_humidity;BME280_pressure;Samples;Min_cycle;Max_cycle;Signal;HPM_P1;HPM_P2
2021/01/12 05:19:15;;;;;;;12.10;7.68;;;;;;;;;;6251937;22;884210;-80
2021/01/12 05:21:42;;;;;;;12.25;7.75;;;;;;;;;;6312529;22;20039;-81
2021/01/12 05:24:10;;;;;;;14.73;8.40;;;;;;;;;;6283695;22;20034;-81
2021/01/12 05:26:36;;;;;;;16.52;9.45;;;;;;;;;;6313239;22;20390;-81
2021/01/12 05:29:03;;;;;;;41.95;22.33;;;;;;;;;;6291576;22;20049;-81
2021/01/12 05:31:30;;;;;;;50.22;27.65;;;;;;;;;;6278212;22;20004;-82
2021/01/12 05:33:56;;;;;;;34.45;18.25;;;;;;;;;;6278685;22;20122;-81
2021/01/12 05:36:23;;;;;;;52.05;26.80;;;;;;;;;;6251728;22;20090;-81
2021/01/12 05:38:49;;;;;;;46.88;24.20;;;;;;;;;;6279874;22;20026;-81
2021/01/12 05:41:15;;;;;;;41.08;22.90;;;;;;;;;;6279843;22;20004;-80
2021/01/12 05:43:45;;;;;;;107.18;52.20;;;;;;;;;;6279348;22;20426;-81
2021/01/12 05:46:12;;;;;;;29.95;16.77;;;;;;;;;;6248499;22;20331;-83
2021/01/12 05:48:39;;;;;;;14.70;8.60;;;;;;;;;;6275296;22;20007;-82
2021/01/12 05:51:09;;;;;;;16.50;8.57;;;;;;;;;;6278388;22;20071;-81
2021/01/12 05:53:47;;;;;;;13.27;6.97;;;;;;;;;;6277970;22;19999;-81
2021/01/12 05:56:20;;;;;;;14.45;6.55;;;;;;;;;;6279819;22;20345;-81
2021/01/12 05:58:52;;;;;;;13.20;6.85;;;;;;;;;;6279509;22;20004;-82
2021/01/12 06:01:38;;;;;;;12.10;6.57;;;;;;;;;;6278895;22;19999;-82
2021/01/12 06:04:09;;;;;;;15.93;8.52;;;;;;;;;;6278993;22;19999;-82
2021/01/12 06:06:37;;;;;;;10.77;6.60;;;;;;;;;;6278873;22;20041;-82
2021/01/12 06:09:03;;;;;;;12.75;8.13;;;;;;;;;;6277923;22;20019;-84
2021/01/12 06:11:33;;;;;;;9.98;6.43;;;;;;;;;;6248360;22;20054;-84
2021/01/12 06:14:06;;;;;;;11.85;7.32;;;;;;;;;;6276759;22;20007;-81
2021/01/12 06:16:34;;;;;;;13.20;7.05;;;;;;;;;;6280764;22;20008;-81
2021/01/12 06:19:10;;;;;;;16.13;9.38;;;;;;;;;;6279584;22;20018;-81
2021/01/12 06:21:50;;;;;;;14.15;7.82;;;;;;;;;;6279782;22;20423;-81
2021/01/12 06:24:19;;;;;;;12.85;7.07;;;;;;;;;;6253526;22;20058;-81
2021/01/12 06:26:45;;;;;;;9.90;6.00;;;;;;;;;;6254171;22;20412;-81
2021/01/12 06:29:11;;;;;;;10.50;6.18;;;;;;;;;;6282181;22;20010;-81
2021/01/12 06:31:47;;;;;;;10.90;6.07;;;;;;;;;;6278868;22;20003;-83
2021/01/12 06:34:19;;;;;;;9.57;5.63;;;;;;;;;;6277363;22;20084;-83
2021/01/12 06:36:56;;;;;;;10.65;5.82;;;;;;;;;;6278166;22;20007;-82
2021/01/12 06:39:23;;;;;;;9.63;6.03;;;;;;;;;;6251832;22;20018;-82
2021/01/12 06:41:49;;;;;;;9.15;5.80;;;;;;;;;;6277369;22;20003;-83
2021/01/12 06:44:26;;;;;;;8.93;5.05;;;;;;;;;;6249217;22;20004;-82
2021/01/12 06:46:52;;;;;;;9.27;4.88;;;;;;;;;;6278867;22;20496;-82
2021/01/12 06:49:28;;;;;;;9.05;5.63;;;;;;;;;;6252382;22;20034;-82
2021/01/12 06:52:14;;;;;;;8.32;4.95;;;;;;;;;;6251939;22;20015;-81
2021/01/12 06:54:44;;;;;;;9.20;5.32;;;;;;;;;;6250639;22;20087;-82
2021/01/12 06:57:11;;;;;;;7.75;4.72;;;;;;;;;;6252105;22;20004;-82
2021/01/12 06:59:45;;;;;;;7.65;4.25;;;;;;;;;;6278286;22;20004;-82
2021/01/12 07:02:21;;;;;;;12.18;6.10;;;;;;;;;;6276723;22;20000;-82
2021/01/12 07:05:05;;;;;;;9.40;4.88;;;;;;;;;;6277828;22;20444;-82
2021/01/12 07:07:39;;;;;;;8.07;4.00;;;;;;;;;;6279321;22;20007;-82
2021/01/12 07:12:23;;;;;;;12.90;7.25;;;;;;;;;;5141510;27;20359;-80
2021/01/12 07:14:56;;;;;;;8.38;4.90;;;;;;;;;;5140508;28;20035;-80
2021/01/12 07:17:26;;;;;;;7.85;4.63;;;;;;;;;;5141516;28;20042;-80
2021/01/12 07:20:25;;;;;;;8.10;5.07;;;;;;;;;;5131107;28;20041;-82
2021/01/12 07:22:57;;;;;;;8.93;4.57;;;;;;;;;;5085846;28;20488;-82
2021/01/12 07:25:28;;;;;;;7.82;4.00;;;;;;;;;;5124180;28;20101;-81
2021/01/12 07:28:01;;;;;;;6.43;3.80;;;;;;;;;;5133595;28;20019;-81
2021/01/12 07:30:27;;;;;;;8.15;4.55;;;;;;;;;;5134068;28;20285;-80
2021/01/12 07:33:00;;;;;;;8.07;4.65;;;;;;;;;;5131422;28;20016;-82
2021/01/12 07:35:27;;;;;;;6.22;4.10;;;;;;;;;;5134875;28;20020;-81
2021/01/12 07:37:53;;;;;;;6.45;4.15;;;;;;;;;;5127894;28;20030;-82
2021/01/12 07:40:20;;;;;;;6.10;3.78;;;;;;;;;;5117997;28;20024;-81
2021/01/12 07:42:53;;;;;;;6.78;4.10;;;;;;;;;;5124268;27;20047;-81
2021/01/12 07:47:38;;;;;;;6.05;3.40;;;;;;;;;;5083351;28;20415;-84
2021/01/12 07:50:06;;;;;;;6.40;4.28;;;;;;;;;;5075183;28;20032;-84
2021/01/12 07:52:32;;;;;;;6.68;4.03;;;;;;;;;;5080499;28;20033;-83
2021/01/12 07:54:59;;;;;;;7.53;3.78;;;;;;;;;;5074433;28;20060;-83
2021/01/12 07:57:25;;;;;;;6.85;4.30;;;;;;;;;;5073228;28;20123;-82
2021/01/12 07:59:51;;;;;;;5.40;3.50;;;;;;;;;;5085921;28;20031;-82
2021/01/12 08:02:18;;;;;;;6.25;3.45;;;;;;;;;;5092329;28;20095;-82
2021/01/12 08:04:44;;;;;;;5.85;3.22;;;;;;;;;;5077143;28;20024;-83
2021/01/12 08:09:29;;;;;;;6.05;3.40;;;;;;;;;;5100711;27;20360;-83
2021/01/12 08:11:59;;;;;;;5.88;3.38;;;;;;;;;;5108648;28;20050;-83
2021/01/12 08:14:25;;;;;;;4.45;2.83;;;;;;;;;;5092338;28;20048;-82
2021/01/12 08:16:53;;;;;;;6.50;3.95;;;;;;;;;;5091874;28;20036;-82
2021/01/12 08:19:20;;;;;;;5.90;3.40;;;;;;;;;;5092854;28;20036;-84
2021/01/12 08:21:46;;;;;;;6.93;3.47;;;;;;;;;;5095586;28;20032;-83
2021/01/12 08:24:12;;;;;;;8.18;4.18;;;;;;;;;;5091087;28;20032;-82
2021/01/12 08:26:44;;;;;;;5.60;2.92;;;;;;;;;;5096315;28;20028;-83
2021/01/12 08:29:11;;;;;;;7.30;3.97;;;;;;;;;;5088548;28;20109;-82
2021/01/12 08:31:43;;;;;;;5.57;3.08;;;;;;;;;;5089448;28;20028;-83
2021/01/12 08:34:10;;;;;;;5.20;3.03;;;;;;;;;;5090774;28;20450;-82
2021/01/12 08:36:36;;;;;;;6.07;3.28;;;;;;;;;;5092283;28;20027;-82
2021/01/12 08:39:02;;;;;;;7.30;3.83;;;;;;;;;;5086502;28;20032;-82
2021/01/12 08:41:32;;;;;;;6.70;3.20;;;;;;;;;;5087912;28;20534;-82
2021/01/12 08:43:59;;;;;;;11.68;5.47;;;;;;;;;;5096848;28;20023;-81
2021/01/12 08:46:29;;;;;;;11.93;6.70;;;;;;;;;;5101269;28;20077;-82
2021/01/12 08:48:55;;;;;;;5.07;3.17;;;;;;;;;;5099721;28;20035;-82
2021/01/12 08:51:22;;;;;;;4.88;3.00;;;;;;;;;;5097254;28;20451;-82
2021/01/12 08:53:49;;;;;;;6.57;3.35;;;;;;;;;;5097719;28;20024;-81
2021/01/12 08:56:15;;;;;;;4.65;2.72;;;;;;;;;;5096593;28;20024;-81
2021/01/12 08:58:42;;;;;;;5.93;3.33;;;;;;;;;;5098420;28;20032;-82
2021/01/12 09:03:27;;;;;;;5.93;3.25;;;;;;;;;;5088504;28;20356;-81
2021/01/12 09:05:53;;;;;;;5.40;3.20;;;;;;;;;;5084994;28;20052;-80
2021/01/12 09:08:23;;;;;;;6.15;2.60;;;;;;;;;;5087980;28;20104;-80
2021/01/12 09:10:49;;;;;;;5.20;2.95;;;;;;;;;;5070410;28;20108;-80
2021/01/12 09:13:15;;;;;;;6.32;3.03;;;;;;;;;;5086344;28;20028;-80
2021/01/12 09:15:42;;;;;;;5.25;2.63;;;;;;;;;;5085426;28;20028;-81
2021/01/12 09:20:26;;;;;;;7.20;4.10;;;;;;;;;;5084044;28;20472;-81
2021/01/12 09:22:53;;;;;;;6.13;3.20;;;;;;;;;;5083753;28;20055;-81
2021/01/12 09:25:24;;;;;;;7.28;4.05;;;;;;;;;;5080253;28;20036;-80
2021/01/12 09:27:51;;;;;;;5.30;2.75;;;;;;;;;;5075717;28;20024;-81
2021/01/12 09:30:25;;;;;;;4.82;2.90;;;;;;;;;;5079099;28;20028;-82
2021/01/12 09:32:51;;;;;;;5.18;2.88;;;;;;;;;;5081513;28;20048;-82
2021/01/12 09:35:20;;;;;;;5.07;3.05;;;;;;;;;;5081617;28;20025;-82
2021/01/12 09:37:59;;;;;;;8.93;2.97;;;;;;;;;;5081916;28;20082;-82
2021/01/12 09:40:25;;;;;;;4.90;2.28;;;;;;;;;;5072476;28;20033;-82
2021/01/12 09:42:51;;;;;;;5.78;2.47;;;;;;;;;;5076660;28;20024;-82
2021/01/12 09:45:17;;;;;;;4.25;2.42;;;;;;;;;;5088364;28;20050;-82
2021/01/12 09:47:44;;;;;;;4.75;2.78;;;;;;;;;;5084329;28;20492;-82
2021/01/12 09:50:10;;;;;;;4.80;2.25;;;;;;;;;;5071554;28;20028;-82
2021/01/12 09:52:36;;;;;;;4.57;2.08;;;;;;;;;;5076197;28;20032;-82
2021/01/12 09:55:03;;;;;;;3.20;1.73;;;;;;;;;;5076596;28;20035;-82
2021/01/12 09:57:29;;;;;;;3.45;1.63;;;;;;;;;;5076864;28;20119;-83
2021/01/12 09:59:55;;;;;;;3.83;2.15;;;;;;;;;;5076456;28;20120;-82
2021/01/12 10:02:21;;;;;;;4.20;2.60;;;;;;;;;;5077316;28;20029;-82
2021/01/12 10:04:47;;;;;;;4.13;2.35;;;;;;;;;;5075967;28;20024;-82
2021/01/12 10:07:13;;;;;;;11.07;6.18;;;;;;;;;;5068409;28;20056;-82
2021/01/12 10:09:39;;;;;;;18.42;9.15;;;;;;;;;;5075319;28;20102;-82
2021/01/12 10:12:05;;;;;;;42.50;24.45;;;;;;;;;;5076742;28;20388;-82
2021/01/12 10:14:31;;;;;;;48.97;24.55;;;;;;;;;;5076480;28;20369;-82
2021/01/12 10:16:57;;;;;;;44.20;27.50;;;;;;;;;;5066073;28;20029;-82
2021/01/12 10:19:23;;;;;;;11.73;7.40;;;;;;;;;;5076851;28;20037;-81
2021/01/12 10:21:49;;;;;;;28.90;15.00;;;;;;;;;;5074017;28;20024;-81
2021/01/12 10:24:15;;;;;;;24.05;13.07;;;;;;;;;;5079191;28;20462;-82
2021/01/12 10:26:43;;;;;;;12.32;8.38;;;;;;;;;;5082564;28;20024;-82
2021/01/12 10:29:09;;;;;;;5.18;3.00;;;;;;;;;;5079425;28;20027;-82
2021/01/12 10:31:35;;;;;;;10.43;5.10;;;;;;;;;;5068129;28;20028;-81
2021/01/12 10:34:01;;;;;;;12.48;6.40;;;;;;;;;;5061798;28;20044;-81
2021/01/12 10:36:27;;;;;;;6.60;4.05;;;;;;;;;;5062061;28;20029;-82
2021/01/12 10:38:52;;;;;;;4.57;2.92;;;;;;;;;;5068403;28;20036;-82
2021/01/12 10:41:18;;;;;;;4.20;2.35;;;;;;;;;;5062824;28;20029;-82
2021/01/12 10:43:44;;;;;;;4.13;2.65;;;;;;;;;;5062617;28;20035;-81
2021/01/12 10:46:13;;;;;;;6.07;4.13;;;;;;;;;;5061865;28;20045;-82
2021/01/12 10:48:40;;;;;;;5.50;3.38;;;;;;;;;;5056218;28;20240;-82
2021/01/12 10:51:06;;;;;;;4.07;1.83;;;;;;;;;;5061784;28;20021;-82
2021/01/12 10:53:32;;;;;;;5.05;2.15;;;;;;;;;;5062581;28;20117;-81
2021/01/12 10:56:01;;;;;;;5.78;3.83;;;;;;;;;;5067687;28;20020;-82
2021/01/12 10:58:27;;;;;;;3.65;2.13;;;;;;;;;;5064991;28;20086;-83
2021/01/12 11:00:53;;;;;;;3.92;2.10;;;;;;;;;;5058216;28;20024;-84
2021/01/12 11:03:19;;;;;;;5.07;3.20;;;;;;;;;;5064709;28;20033;-84
2021/01/12 11:05:46;;;;;;;5.45;3.38;;;;;;;;;;5066620;28;20013;-87
2021/01/12 11:08:12;;;;;;;7.43;3.50;;;;;;;;;;5069921;28;20070;-84
2021/01/12 11:10:38;;;;;;;6.38;3.63;;;;;;;;;;5062983;28;20107;-84
2021/01/12 11:13:05;;;;;;;3.85;2.20;;;;;;;;;;5063406;28;20495;-84
2021/01/12 11:15:31;;;;;;;3.72;2.22;;;;;;;;;;5062272;28;20019;-84
2021/01/12 11:17:57;;;;;;;5.75;3.35;;;;;;;;;;5063912;28;20459;-84
2021/01/12 11:20:23;;;;;;;5.95;2.78;;;;;;;;;;5071544;28;20119;-84
2021/01/12 11:22:49;;;;;;;4.22;2.63;;;;;;;;;;5063636;28;20031;-84
2021/01/12 11:25:15;;;;;;;4.32;2.65;;;;;;;;;;5064025;28;20013;-85
2021/01/12 11:27:41;;;;;;;3.95;2.10;;;;;;;;;;5056804;28;20017;-84
2021/01/12 11:30:08;;;;;;;3.58;2.13;;;;;;;;;;5064308;28;20020;-83
2021/01/12 11:32:35;;;;;;;3.47;1.88;;;;;;;;;;5061748;28;20082;-84
2021/01/12 11:35:01;;;;;;;3.28;1.55;;;;;;;;;;5062788;28;20035;-84
2021/01/12 11:37:29;;;;;;;4.00;2.30;;;;;;;;;;5064031;28;20392;-85
2021/01/12 11:39:55;;;;;;;3.95;2.70;;;;;;;;;;5047767;28;20024;-83
2021/01/12 11:42:21;;;;;;;3.60;1.75;;;;;;;;;;5062516;28;20445;-84
2021/01/12 11:44:48;;;;;;;3.90;2.15;;;;;;;;;;5059713;28;20036;-81
2021/01/12 11:47:14;;;;;;;3.08;1.77;;;;;;;;;;5065327;28;20103;-82
2021/01/12 11:49:40;;;;;;;3.15;1.92;;;;;;;;;;5063031;28;20468;-82
2021/01/12 11:52:09;;;;;;;3.22;1.45;;;;;;;;;;5062846;28;20028;-82
2021/01/12 11:54:36;;;;;;;5.40;2.20;;;;;;;;;;5064226;28;20032;-82
2021/01/12 11:57:05;;;;;;;5.78;2.30;;;;;;;;;;5058607;28;20040;-82
2021/01/12 11:59:31;;;;;;;3.70;1.80;;;;;;;;;;5063689;28;20020;-83
2021/01/12 12:01:57;;;;;;;4.15;2.00;;;;;;;;;;5055037;28;20071;-82
2021/01/12 12:04:24;;;;;;;3.10;1.50;;;;;;;;;;5063029;28;20024;-82
2021/01/12 12:06:51;;;;;;;8.18;4.28;;;;;;;;;;5056787;28;20104;-82
2021/01/12 12:09:17;;;;;;;4.93;2.65;;;;;;;;;;5063940;28;20059;-83
2021/01/12 12:11:44;;;;;;;3.75;1.95;;;;;;;;;;5063730;28;20028;-83
2021/01/12 12:16:28;;;;;;;2.95;1.70;;;;;;;;;;5118958;27;20416;-85
2021/01/12 12:18:54;;;;;;;4.15;2.20;;;;;;;;;;5091360;28;20029;-83
2021/01/12 12:21:21;;;;;;;4.15;2.53;;;;;;;;;;5089502;28;20024;-85
2021/01/12 12:23:50;;;;;;;3.85;1.95;;;;;;;;;;5085805;28;20062;-85
2021/01/12 12:26:16;;;;;;;6.65;3.58;;;;;;;;;;5085756;28;20021;-85
2021/01/12 12:28:42;;;;;;;3.20;1.70;;;;;;;;;;5086675;28;20116;-85
2021/01/12 12:31:09;;;;;;;3.75;2.70;;;;;;;;;;5092930;28;20107;-85
2021/01/12 12:33:35;;;;;;;5.40;2.05;;;;;;;;;;5094476;28;20518;-84
2021/01/12 12:36:05;;;;;;;4.30;2.65;;;;;;;;;;5097561;28;20073;-84
2021/01/12 12:38:32;;;;;;;4.65;2.80;;;;;;;;;;5094152;28;20496;-85
2021/01/12 12:40:57;;;;;;;3.70;1.92;;;;;;;;;;5094460;28;20046;-85
2021/01/12 12:43:23;;;;;;;4.00;2.38;;;;;;;;;;5098018;28;20017;-85
2021/01/12 12:45:49;;;;;;;3.28;1.77;;;;;;;;;;5094089;28;20036;-85
2021/01/12 12:48:17;;;;;;;3.65;1.88;;;;;;;;;;5083220;28;20365;-84
2021/01/12 12:50:43;;;;;;;3.45;1.95;;;;;;;;;;5084840;28;20055;-84
2021/01/12 12:53:09;;;;;;;4.30;2.80;;;;;;;;;;5083317;28;20056;-85
2021/01/12 12:55:35;;;;;;;5.00;3.58;;;;;;;;;;5088099;28;20142;-84
2021/01/12 12:58:01;;;;;;;2.95;1.65;;;;;;;;;;5089435;28;20025;-85
2021/01/12 13:00:27;;;;;;;3.53;1.77;;;;;;;;;;5088737;28;20032;-84
2021/01/12 13:02:53;;;;;;;3.58;2.38;;;;;;;;;;5086574;28;20091;-83
2021/01/12 13:05:19;;;;;;;2.85;1.35;;;;;;;;;;5082647;28;20099;-83
2021/01/12 13:07:46;;;;;;;2.70;1.23;;;;;;;;;;5085061;28;20028;-83
2021/01/12 13:10:12;;;;;;;2.72;1.30;;;;;;;;;;5087575;28;20016;-83
2021/01/12 13:12:38;;;;;;;3.13;1.77;;;;;;;;;;5085530;28;20507;-84
2021/01/12 13:17:26;;;;;;;3.50;1.73;;;;;;;;;;5105434;28;20361;-82
2021/01/12 13:20:02;;;;;;;3.28;1.52;;;;;;;;;;5104998;28;20032;-82
2021/01/12 13:22:28;;;;;;;2.53;1.13;;;;;;;;;;5088970;28;20058;-82
2021/01/12 13:24:54;;;;;;;2.78;1.70;;;;;;;;;;5092639;28;20032;-82
2021/01/12 13:27:22;;;;;;;2.83;1.65;;;;;;;;;;5077267;28;20143;-84
2021/01/12 13:29:48;;;;;;;3.05;1.75;;;;;;;;;;5072600;28;20021;-83
2021/01/12 13:32:14;;;;;;;4.05;2.85;;;;;;;;;;5086139;28;20060;-82
2021/01/12 13:34:40;;;;;;;5.60;3.10;;;;;;;;;;5071322;28;20048;-82
2021/01/12 13:37:06;;;;;;;4.97;3.00;;;;;;;;;;5075577;28;20021;-82
2021/01/12 13:39:32;;;;;;;5.95;3.58;;;;;;;;;;5088434;28;20122;-83
2021/01/12 13:54:41;;;;;;;2.47;1.45;;;;;;;;;;5128069;27;20972;-83
2021/01/12 13:57:11;;;;;;;3.72;2.17;;;;;;;;;;5124630;28;20031;-83
2021/01/12 14:01:56;;;;;;;2.80;1.50;;;;;;;;;;5094203;27;20926;-83
2021/01/12 14:04:22;;;;;;;5.82;2.50;;;;;;;;;;5075184;28;20051;-83
2021/01/12 14:06:48;;;;;;;3.53;1.67;;;;;;;;;;5096844;28;20032;-83
2021/01/12 14:09:14;;;;;;;4.72;2.38;;;;;;;;;;5073919;28;20515;-83
2021/01/12 14:11:40;;;;;;;7.38;4.22;;;;;;;;;;5073586;28;20123;-83
2021/01/12 14:14:06;;;;;;;8.68;5.50;;;;;;;;;;5070427;28;20059;-83
2021/01/12 14:16:32;;;;;;;3.97;2.22;;;;;;;;;;5080990;28;20033;-83
2021/01/12 14:18:58;;;;;;;2.65;1.30;;;;;;;;;;5096783;28;20032;-83
2021/01/12 14:21:24;;;;;;;5.43;2.75;;;;;;;;;;5074948;28;20066;-83
2021/01/12 14:23:50;;;;;;;21.38;10.68;;;;;;;;;;5082462;28;20025;-82
2021/01/12 14:26:17;;;;;;;12.02;6.28;;;;;;;;;;5076571;28;20416;-83
2021/01/12 14:28:43;;;;;;;10.73;4.68;;;;;;;;;;5082886;28;20068;-83
2021/01/12 14:31:10;;;;;;;8.07;4.88;;;;;;;;;;5075241;28;20028;-83
2021/01/12 14:33:36;;;;;;;9.15;4.68;;;;;;;;;;5078343;28;20751;-82
2021/01/12 14:36:02;;;;;;;7.50;4.22;;;;;;;;;;5080155;28;20040;-83
2021/01/12 14:38:32;;;;;;;9.95;5.93;;;;;;;;;;5075679;28;20116;-83
2021/01/12 14:40:58;;;;;;;7.70;4.93;;;;;;;;;;5081539;28;20060;-82
2021/01/12 14:43:24;;;;;;;10.07;5.75;;;;;;;;;;5075198;28;20078;-83
2021/01/12 14:45:50;;;;;;;17.63;8.95;;;;;;;;;;5099650;28;20032;-82
2021/01/12 14:48:16;;;;;;;13.60;7.80;;;;;;;;;;5076101;28;20400;-81
2021/01/12 14:50:43;;;;;;;9.40;5.30;;;;;;;;;;5078980;28;20025;-82
2021/01/12 14:53:10;;;;;;;6.07;3.00;;;;;;;;;;5079116;28;20028;-81
2021/01/12 14:55:36;;;;;;;22.85;11.68;;;;;;;;;;5075157;28;20033;-83
2021/01/12 14:58:02;;;;;;;19.85;10.57;;;;;;;;;;5096243;28;20059;-83
2021/01/12 15:00:28;;;;;;;38.72;21.10;;;;;;;;;;5074939;28;20689;-83
2021/01/12 15:02:54;;;;;;;5.28;3.50;;;;;;;;;;5082456;28;20020;-83
2021/01/12 15:05:20;;;;;;;8.20;5.28;;;;;;;;;;5075067;28;20028;-83
2021/01/12 15:07:46;;;;;;;4.65;2.92;;;;;;;;;;5077101;28;20021;-83
2021/01/12 15:10:13;;;;;;;5.95;3.83;;;;;;;;;;5074174;28;20056;-83
2021/01/12 15:12:39;;;;;;;5.15;3.78;;;;;;;;;;5068022;28;20489;-83
2021/01/12 15:15:05;;;;;;;5.43;3.00;;;;;;;;;;5066112;28;20096;-83
2021/01/12 15:17:31;;;;;;;5.18;3.72;;;;;;;;;;5061002;28;20120;-82
2021/01/12 15:19:57;;;;;;;6.80;5.15;;;;;;;;;;5061268;28;20103;-83
2021/01/12 15:22:23;;;;;;;8.15;6.22;;;;;;;;;;5063694;28;20028;-82
2021/01/12 15:24:49;;;;;;;6.63;4.88;;;;;;;;;;5060564;28;20095;-83
2021/01/12 15:27:15;;;;;;;8.20;5.57;;;;;;;;;;5065207;28;20025;-83
2021/01/12 15:29:41;;;;;;;5.80;3.97;;;;;;;;;;5079790;28;20539;-83
2021/01/12 15:32:07;;;;;;;5.07;3.10;;;;;;;;;;5080612;28;20124;-83
2021/01/12 15:34:33;;;;;;;6.63;3.97;;;;;;;;;;5064247;28;20092;-83
2021/01/12 15:36:59;;;;;;;7.65;4.28;;;;;;;;;;5080620;28;20408;-83
2021/01/12 15:39:26;;;;;;;7.70;5.32;;;;;;;;;;5078629;28;20029;-83
2021/01/12 15:41:58;;;;;;;6.40;4.28;;;;;;;;;;5080412;28;20025;-83
2021/01/12 15:44:25;;;;;;;16.88;8.27;;;;;;;;;;5063453;28;20021;-82
2021/01/12 15:46:51;;;;;;;7.28;4.38;;;;;;;;;;5064782;28;20029;-83
2021/01/12 15:49:18;;;;;;;7.20;4.32;;;;;;;;;;5064758;28;20483;-83
2021/01/12 15:51:43;;;;;;;5.45;3.13;;;;;;;;;;5080146;28;20025;-83
2021/01/12 15:54:10;;;;;;;6.20;3.22;;;;;;;;;;5064334;28;20606;-83
2021/01/12 15:56:36;;;;;;;6.97;3.80;;;;;;;;;;5078132;28;20389;-83
2021/01/12 15:59:02;;;;;;;7.72;4.07;;;;;;;;;;5080392;28;20028;-83
2021/01/12 16:01:28;;;;;;;4.90;2.80;;;;;;;;;;5063229;28;20043;-83
2021/01/12 16:03:54;;;;;;;6.40;3.15;;;;;;;;;;5079493;28;20035;-83
2021/01/12 16:06:20;;;;;;;6.60;3.22;;;;;;;;;;5057584;28;20386;-83
2021/01/12 16:08:46;;;;;;;18.10;8.43;;;;;;;;;;5061519;28;20025;-83
2021/01/12 16:11:13;;;;;;;26.05;13.80;;;;;;;;;;5064776;28;20060;-83
2021/01/12 16:13:39;;;;;;;13.18;7.18;;;;;;;;;;5062263;28;20017;-82
2021/01/12 16:16:06;;;;;;;8.48;4.38;;;;;;;;;;5064254;28;20105;-83
2021/01/12 16:18:32;;;;;;;7.15;4.07;;;;;;;;;;5079028;28;20036;-83
2021/01/12 16:20:58;;;;;;;9.35;5.65;;;;;;;;;;5063401;28;20067;-82
2021/01/12 16:23:27;;;;;;;7.03;4.57;;;;;;;;;;5069581;28;20020;-82
2021/01/12 16:25:54;;;;;;;9.98;5.97;;;;;;;;;;5063909;28;20140;-82
2021/01/12 16:28:20;;;;;;;9.63;5.70;;;;;;;;;;5070303;28;20025;-83
2021/01/12 16:30:47;;;;;;;9.48;5.40;;;;;;;;;;5065001;28;20048;-83
2021/01/12 16:33:21;;;;;;;7.93;5.35;;;;;;;;;;5069050;28;20024;-82
2021/01/12 16:35:47;;;;;;;5.68;3.55;;;;;;;;;;5080337;28;20028;-82
2021/01/12 16:38:13;;;;;;;16.45;6.82;;;;;;;;;;5064799;28;20029;-82
2021/01/12 16:40:39;;;;;;;27.38;14.48;;;;;;;;;;5070220;28;20107;-83
2021/01/12 16:43:06;;;;;;;21.20;10.77;;;;;;;;;;5058052;28;20030;-83
2021/01/12 16:45:33;;;;;;;15.35;9.02;;;;;;;;;;5066554;28;20366;-84
2021/01/12 16:47:59;;;;;;;17.35;7.10;;;;;;;;;;5062257;28;20013;-83
2021/01/12 16:50:25;;;;;;;12.45;7.43;;;;;;;;;;5070309;28;20031;-83
2021/01/12 16:53:00;;;;;;;10.52;6.00;;;;;;;;;;5060120;28;20047;-83
2021/01/12 16:55:26;;;;;;;16.13;9.95;;;;;;;;;;5052663;28;20032;-82
2021/01/12 16:57:53;;;;;;;8.68;5.80;;;;;;;;;;5070303;28;20029;-82
2021/01/12 17:00:20;;;;;;;8.38;5.60;;;;;;;;;;5066011;28;20052;-82
2021/01/12 17:02:47;;;;;;;8.05;5.30;;;;;;;;;;5065212;28;20546;-84
2021/01/12 17:05:17;;;;;;;5.00;2.80;;;;;;;;;;5063908;28;20409;-82
2021/01/12 17:07:44;;;;;;;4.97;3.00;;;;;;;;;;5063620;28;20028;-83
2021/01/12 17:10:11;;;;;;;5.57;3.15;;;;;;;;;;5078332;28;20033;-83
2021/01/12 17:12:38;;;;;;;4.32;2.90;;;;;;;;;;5060259;28;20131;-83
2021/01/12 17:15:05;;;;;;;7.97;3.97;;;;;;;;;;5063780;28;20029;-83
2021/01/12 17:17:36;;;;;;;6.13;3.25;;;;;;;;;;5058249;28;20021;-82
2021/01/12 17:20:03;;;;;;;8.77;5.47;;;;;;;;;;5065418;28;20024;-83
2021/01/12 17:22:35;;;;;;;11.02;7.82;;;;;;;;;;5076485;28;20051;-84
2021/01/12 17:25:01;;;;;;;;;;;;;;;;;;5070825;28;20030;-82
2021/01/12 17:27:28;;;;;;;5.75;2.53;;;;;;;;;;5069396;28;19942;-83
2021/01/12 17:29:55;;;;;;;11.38;7.57;;;;;;;;;;5050226;28;20481;-83
2021/01/12 17:32:21;;;;;;;7.97;5.38;;;;;;;;;;5054990;28;20029;-82
2021/01/12 17:34:47;;;;;;;14.98;8.40;;;;;;;;;;5090570;22;20083;-79
2021/01/12 17:37:18;;;;;;;10.45;6.35;;;;;;;;;;5079438;28;20029;-79
2021/01/12 17:39:48;;;;;;;10.57;7.35;;;;;;;;;;5078430;28;20115;-79
2021/01/12 17:42:13;;;;;;;7.32;4.25;;;;;;;;;;5075592;28;20031;-79
2021/01/12 17:44:40;;;;;;;7.32;4.60;;;;;;;;;;5091856;28;20070;-79
2021/01/12 17:47:06;;;;;;;8.95;4.15;;;;;;;;;;5089193;28;20091;-78
2021/01/12 17:49:32;;;;;;;5.95;4.13;;;;;;;;;;5085175;28;20028;-78
2021/01/12 17:52:00;;;;;;;5.80;3.08;;;;;;;;;;5083745;28;20025;-78
2021/01/12 17:54:29;;;;;;;14.40;7.45;;;;;;;;;;5081838;28;20028;-78
2021/01/12 17:56:56;;;;;;;12.35;8.00;;;;;;;;;;5092474;28;20054;-78
2021/01/12 17:59:23;;;;;;;9.50;6.45;;;;;;;;;;5074091;28;20034;-78
2021/01/12 18:01:49;;;;;;;4.05;2.70;;;;;;;;;;5075693;28;20024;-77
2021/01/12 18:04:16;;;;;;;6.90;4.07;;;;;;;;;;5084429;28;20091;-77
2021/01/12 18:06:43;;;;;;;7.10;4.93;;;;;;;;;;5085172;28;20055;-78
2021/01/12 18:09:11;;;;;;;45.45;21.13;;;;;;;;;;5084395;28;20021;-76
2021/01/12 18:11:37;;;;;;;31.55;16.90;;;;;;;;;;5087335;28;20037;-77
2021/01/12 18:14:05;;;;;;;25.20;15.38;;;;;;;;;;5083864;28;20028;-76
2021/01/12 18:16:31;;;;;;;9.88;6.20;;;;;;;;;;5089038;28;20430;-77
2021/01/12 18:18:57;;;;;;;6.55;3.92;;;;;;;;;;5087960;28;20032;-77
2021/01/12 18:21:25;;;;;;;10.35;4.75;;;;;;;;;;5088479;28;20052;-77
2021/01/12 18:23:51;;;;;;;116.32;41.83;;;;;;;;;;5072230;28;20028;-78
2021/01/12 18:26:17;;;;;;;69.88;28.05;;;;;;;;;;5083556;28;20087;-78
2021/01/12 18:28:48;;;;;;;35.70;18.63;;;;;;;;;;5085554;28;20027;-78
2021/01/12 18:31:14;;;;;;;22.70;14.15;;;;;;;;;;5085660;28;20028;-78
2021/01/12 18:33:40;;;;;;;10.60;7.15;;;;;;;;;;5067985;28;20040;-78
2021/01/12 18:36:06;;;;;;;8.80;5.20;;;;;;;;;;5079818;28;20103;-77
2021/01/12 18:38:33;;;;;;;9.43;5.15;;;;;;;;;;5085815;28;20027;-79
2021/01/12 18:41:01;;;;;;;6.70;3.95;;;;;;;;;;5087125;28;20028;-78
2021/01/12 18:43:27;;;;;;;7.93;4.85;;;;;;;;;;5083874;28;20036;-78
2021/01/12 18:45:53;;;;;;;6.05;3.75;;;;;;;;;;5086650;28;20028;-78
2021/01/12 18:48:19;;;;;;;8.70;4.03;;;;;;;;;;5090605;28;20024;-77
2021/01/12 18:50:45;;;;;;;9.77;5.75;;;;;;;;;;5088919;28;20380;-78
2021/01/12 18:53:11;;;;;;;6.75;3.95;;;;;;;;;;5081912;28;20034;-78
2021/01/12 18:55:40;;;;;;;8.13;4.47;;;;;;;;;;5089499;28;20036;-78
2021/01/12 18:58:06;;;;;;;6.35;3.45;;;;;;;;;;5092148;28;20020;-78
2021/01/12 19:00:33;;;;;;;5.90;3.10;;;;;;;;;;5087300;28;20040;-78
2021/01/12 19:02:59;;;;;;;9.27;5.28;;;;;;;;;;5082555;28;20021;-78
2021/01/12 19:05:25;;;;;;;6.95;3.65;;;;;;;;;;5088710;28;20035;-78
2021/01/12 19:07:53;;;;;;;5.95;2.28;;;;;;;;;;5090859;28;20036;-77
2021/01/12 19:10:19;;;;;;;6.43;2.88;;;;;;;;;;5088466;28;20028;-78
2021/01/12 19:12:45;;;;;;;3.83;2.03;;;;;;;;;;5085842;28;20035;-78
2021/01/12 19:15:12;;;;;;;6.50;3.45;;;;;;;;;;5089700;28;20098;-77
2021/01/12 19:17:38;;;;;;;7.18;4.85;;;;;;;;;;5092451;28;20028;-76
2021/01/12 19:20:05;;;;;;;8.88;4.70;;;;;;;;;;5086164;28;20107;-77
2021/01/12 19:22:31;;;;;;;8.68;5.05;;;;;;;;;;5087968;28;20432;-77
2021/01/12 19:24:57;;;;;;;11.15;5.32;;;;;;;;;;5088271;28;20394;-77
2021/01/12 19:27:23;;;;;;;10.75;4.85;;;;;;;;;;5086816;28;20043;-77
2021/01/12 19:29:49;;;;;;;8.65;4.60;;;;;;;;;;5088251;28;20028;-76
2021/01/12 19:32:15;;;;;;;12.13;5.65;;;;;;;;;;5080960;28;20036;-77
2021/01/12 19:34:42;;;;;;;7.43;3.28;;;;;;;;;;5084785;28;20437;-77
2021/01/12 19:37:08;;;;;;;8.13;4.13;;;;;;;;;;5088074;28;20028;-77
2021/01/12 19:39:35;;;;;;;6.90;3.20;;;;;;;;;;5086206;28;20502;-77
2021/01/12 19:42:02;;;;;;;5.78;3.65;;;;;;;;;;5087579;28;20024;-77
2021/01/12 19:44:29;;;;;;;4.85;2.78;;;;;;;;;;5087387;28;20043;-78
2021/01/12 19:51:34;;;;;;;3.72;2.17;;;;;;;;;;5082913;28;20685;-78
2021/01/12 19:54:01;;;;;;;6.13;3.55;;;;;;;;;;5061223;28;20025;-78
2021/01/12 19:56:27;;;;;;;4.45;2.40;;;;;;;;;;5068229;28;20028;-78
2021/01/12 20:01:11;;;;;;;4.53;2.30;;;;;;;;;;5100273;27;20790;-77
2021/01/12 20:03:38;;;;;;;5.38;2.80;;;;;;;;;;5100832;28;20078;-76
2021/01/12 20:06:08;;;;;;;3.95;2.25;;;;;;;;;;5095007;28;20487;-77
2021/01/12 20:08:34;;;;;;;5.07;2.53;;;;;;;;;;5094339;28;20099;-77
2021/01/12 20:11:00;;;;;;;4.10;2.03;;;;;;;;;;5096049;28;20053;-78
2021/01/12 20:13:26;;;;;;;4.82;2.58;;;;;;;;;;5088695;28;20024;-77
2021/01/12 20:15:52;;;;;;;3.72;2.05;;;;;;;;;;5093572;28;20447;-77
2021/01/12 20:18:19;;;;;;;4.35;2.42;;;;;;;;;;5094610;28;20020;-77
2021/01/12 20:20:45;;;;;;;3.58;1.88;;;;;;;;;;5092629;28;20039;-77
2021/01/12 20:23:18;;;;;;;19.15;9.70;;;;;;;;;;5090638;28;20794;-77
2021/01/12 20:25:49;;;;;;;11.52;5.57;;;;;;;;;;5096640;28;20031;-77
2021/01/12 20:28:16;;;;;;;7.28;4.20;;;;;;;;;;5097277;28;20051;-77
2021/01/12 20:30:43;;;;;;;5.60;3.05;;;;;;;;;;5090619;28;20506;-77
2021/01/12 20:33:10;;;;;;;5.55;3.70;;;;;;;;;;5089432;28;20031;-77
2021/01/12 20:35:38;;;;;;;8.68;4.07;;;;;;;;;;5097473;28;20095;-77